Observation data for Abernathy on 02/13/2018      Previous  Date  Next       Current Mesonet Observations  Soil Data  Daily Summary Page  Observations in Plain Language
KARS 130600Z 11008KT M03/M11 A3024 RMK A01 T10311107  RH  056%=      5-min Rain = 0
KARS 130605Z 12008KT M03/M11 A3024 RMK A01 T10321107  RH  056%=      5-min Rain = 0
KARS 130610Z 11008KT M03/M11 A3024 RMK A01 T10331107  RH  056%=      5-min Rain = 0
KARS 130615Z 11008KT M03/M11 A3024 RMK A01 T10341107  RH  057%=      5-min Rain = 0
KARS 130620Z 11007KT M04/M11 A3024 RMK A01 T10361108  RH  057%=      5-min Rain = 0
KARS 130625Z 12007KT M04/M11 A3024 RMK A01 T10371108  RH  058%=      5-min Rain = 0
KARS 130630Z 12006KT M04/M11 A3024 RMK A01 T10381108  RH  058%=      5-min Rain = 0
KARS 130635Z 11006KT M04/M11 A3024 RMK A01 T10381108  RH  058%=      5-min Rain = 0
KARS 130640Z 11006KT M04/M11 A3024 RMK A01 T10391107  RH  059%=      5-min Rain = 0
KARS 130645Z 12006KT M04/M11 A3025 RMK A01 T10391108  RH  059%=      5-min Rain = 0
KARS 130650Z 12005KT M04/M11 A3025 RMK A01 T10401108  RH  059%=      5-min Rain = 0
KARS 130655Z 11005KT M04/M11 A3025 RMK A01 T10411108  RH  060%=      5-min Rain = 0
KARS 130700Z 10004KT M04/M11 A3026 RMK A01 T10421107  RH  061%=      5-min Rain = 0
KARS 130705Z 09004KT M04/M11 A3026 RMK A01 T10421105  RH  061%=      5-min Rain = 0
KARS 130710Z 10004KT M04/M11 A3026 RMK A01 T10421105  RH  061%=      5-min Rain = 0
KARS 130715Z 10003KT M04/M11 A3026 RMK A01 T10411105  RH  061%=      5-min Rain = 0
KARS 130720Z 07003KT M04/M11 A3026 RMK A01 T10421105  RH  061%=      5-min Rain = 0
KARS 130725Z 07003KT M04/M11 A3026 RMK A01 T10431109  RH  060%=      5-min Rain = 0
KARS 130730Z 07003KT M05/M11 A3026 RMK A01 T10481113  RH  060%=      5-min Rain = 0
KARS 130735Z 08004KT M05/M11 A3026 RMK A01 T10501111  RH  062%=      5-min Rain = 0
KARS 130740Z 07005KT M05/M11 A3026 RMK A01 T10501111  RH  062%=      5-min Rain = 0
KARS 130745Z 07006KT M05/M11 A3025 RMK A01 T10521112  RH  062%=      5-min Rain = 0
KARS 130750Z 08005KT M05/M11 A3025 RMK A01 T10521111  RH  063%=      5-min Rain = 0
KARS 130755Z 08005KT M05/M11 A3025 RMK A01 T10511110  RH  063%=      5-min Rain = 0
KARS 130800Z 08006KT M05/M11 A3025 RMK A01 T10511110  RH  063%=      5-min Rain = 0
KARS 130805Z 08006KT M05/M11 A3025 RMK A01 T10521110  RH  063%=      5-min Rain = 0
KARS 130810Z 09007KT M05/M11 A3025 RMK A01 T10531107  RH  066%=      5-min Rain = 0
KARS 130815Z 09007KT M05/M10 A3025 RMK A01 T10511101  RH  068%=      5-min Rain = 0
KARS 130820Z 09007KT M05/M10 A3024 RMK A01 T10491100  RH  068%=      5-min Rain = 0
KARS 130825Z 08006KT M05/M10 A3024 RMK A01 T10481096  RH  069%=      5-min Rain = 0
KARS 130830Z 09006KT M05/M10 A3024 RMK A01 T10471096  RH  069%=      5-min Rain = 0
KARS 130835Z 09007KT M05/M10 A3024 RMK A01 T10501098  RH  069%=      5-min Rain = 0
KARS 130840Z 10007KT M05/M10 A3024 RMK A01 T10501098  RH  069%=      5-min Rain = 0
KARS 130845Z 10007KT M05/M10 A3024 RMK A01 T10501099  RH  069%=      5-min Rain = 0
KARS 130850Z 10007KT M05/M10 A3024 RMK A01 T10521100  RH  069%=      5-min Rain = 0
KARS 130855Z 10006KT M05/M10 A3024 RMK A01 T10541102  RH  069%=      5-min Rain = 0
KARS 130900Z 10006KT M05/M10 A3024 RMK A01 T10541101  RH  069%=      5-min Rain = 0
KARS 130905Z 10006KT M06/M10 A3024 RMK A01 T10551101  RH  070%=      5-min Rain = 0
KARS 130910Z 10005KT M06/M10 A3024 RMK A01 T10561101  RH  070%=      5-min Rain = 0
KARS 130915Z 09004KT M06/M10 A3024 RMK A01 T10561100  RH  071%=      5-min Rain = 0
KARS 130920Z 08004KT M06/M10 A3024 RMK A01 T10561100  RH  071%=      5-min Rain = 0
KARS 130925Z 08003KT M06/M10 A3024 RMK A01 T10571104  RH  069%=      5-min Rain = 0
KARS 130930Z 08002KT M06/M11 A3024 RMK A01 T10601107  RH  069%=      5-min Rain = 0
KARS 130935Z 09004KT M06/M10 A3024 RMK A01 T10611104  RH  071%=      5-min Rain = 0
KARS 130940Z 08003KT M06/M10 A3025 RMK A01 T10581101  RH  072%=      5-min Rain = 0
KARS 130945Z 09004KT M06/M10 A3025 RMK A01 T10571100  RH  071%=      5-min Rain = 0
KARS 130950Z 10004KT M06/M10 A3025 RMK A01 T10561098  RH  072%=      5-min Rain = 0
KARS 130955Z 10004KT M05/M10 A3026 RMK A01 T10541097  RH  072%=      5-min Rain = 0
KARS 131000Z 10004KT M05/M10 A3026 RMK A01 T10541095  RH  072%=      5-min Rain = 0
KARS 131005Z 09004KT M05/M10 A3025 RMK A01 T10541095  RH  073%=      5-min Rain = 0
KARS 131010Z 10005KT M05/M09 A3025 RMK A01 T10541093  RH  074%=      5-min Rain = 0
KARS 131015Z 10005KT M05/M09 A3025 RMK A01 T10531094  RH  073%=      5-min Rain = 0
KARS 131020Z 10005KT M06/M10 A3025 RMK A01 T10551095  RH  073%=      5-min Rain = 0
KARS 131025Z 10005KT M06/M10 A3026 RMK A01 T10561096  RH  073%=      5-min Rain = 0
KARS 131030Z 09006KT M06/M09 A3025 RMK A01 T10561093  RH  075%=      5-min Rain = 0
KARS 131035Z 08006KT M06/M10 A3025 RMK A01 T10571097  RH  073%=      5-min Rain = 0
KARS 131040Z 06005KT M06/M11 A3024 RMK A01 T10621106  RH  071%=      5-min Rain = 0
KARS 131045Z 05006KT M07/M11 A3025 RMK A01 T10651106  RH  072%=      5-min Rain = 0
KARS 131050Z 06005KT M07/M11 A3025 RMK A01 T10671107  RH  073%=      5-min Rain = 0
KARS 131055Z 07004KT M07/M11 A3025 RMK A01 T10701109  RH  073%=      5-min Rain = 0
KARS 131100Z 03004KT M07/M11 A3025 RMK A01 T10711110  RH  073%=      5-min Rain = 0
KARS 131105Z 01006KT M07/M11 A3025 RMK A01 T10741113  RH  073%=      5-min Rain = 0
KARS 131110Z 02005KT M08/M11 A3024 RMK A01 T10761113  RH  074%=      5-min Rain = 0
KARS 131115Z 03005KT M07/M11 A3025 RMK A01 T10741111  RH  075%=      5-min Rain = 0
KARS 131120Z 03004KT M07/M11 A3025 RMK A01 T10741110  RH  075%=      5-min Rain = 0
KARS 131125Z 06003KT M08/M11 A3025 RMK A01 T10751111  RH  075%=      5-min Rain = 0
KARS 131130Z 08003KT M08/M11 A3025 RMK A01 T10761111  RH  075%=      5-min Rain = 0
KARS 131135Z 09002KT M08/M11 A3025 RMK A01 T10751110  RH  076%=      5-min Rain = 0
KARS 131140Z 08003KT M08/M11 A3025 RMK A01 T10761110  RH  076%=      5-min Rain = 0
KARS 131145Z 08002KT M08/M11 A3025 RMK A01 T10751109  RH  077%=      5-min Rain = 0
KARS 131150Z 09002KT M07/M11 A3025 RMK A01 T10741108  RH  076%=      5-min Rain = 0
KARS 131155Z 12002KT M07/M11 A3025 RMK A01 T10741107  RH  077%=      5-min Rain = 0
KARS 131200Z 12002KT M07/M11 A3026 RMK A01 T10721105  RH  077%=      5-min Rain = 0
KARS 131205Z 11001KT M07/M10 A3026 RMK A01 T10711104  RH  077%=      5-min Rain = 0
KARS 131210Z 06001KT M07/M10 A3026 RMK A01 T10691103  RH  077%=      5-min Rain = 0
KARS 131215Z 05001KT M07/M11 A3026 RMK A01 T10711109  RH  074%=      5-min Rain = 0
KARS 131220Z 06001KT M07/M11 A3027 RMK A01 T10741114  RH  073%=      5-min Rain = 0
KARS 131225Z 08002KT M08/M11 A3027 RMK A01 T10761114  RH  073%=      5-min Rain = 0
KARS 131230Z 08002KT M08/M11 A3027 RMK A01 T10751111  RH  075%=      5-min Rain = 0
KARS 131235Z 09003KT M07/M11 A3027 RMK A01 T10731110  RH  074%=      5-min Rain = 0
KARS 131240Z 09004KT M07/M11 A3026 RMK A01 T10711107  RH  075%=      5-min Rain = 0
KARS 131245Z 10004KT M07/M10 A3026 RMK A01 T10701104  RH  076%=      5-min Rain = 0
KARS 131250Z 10004KT M07/M10 A3026 RMK A01 T10681104  RH  076%=      5-min Rain = 0
KARS 131255Z 10004KT M07/M10 A3027 RMK A01 T10671101  RH  076%=      5-min Rain = 0
KARS 131300Z 10004KT M07/M10 A3027 RMK A01 T10651099  RH  077%=      5-min Rain = 0
KARS 131305Z 10004KT M06/M10 A3027 RMK A01 T10641098  RH  077%=      5-min Rain = 0
KARS 131310Z 09003KT M06/M10 A3027 RMK A01 T10631097  RH  077%=      5-min Rain = 0
KARS 131315Z 08003KT M06/M10 A3027 RMK A01 T10631096  RH  077%=      5-min Rain = 0
KARS 131320Z 05003KT M06/M10 A3027 RMK A01 T10631098  RH  076%=      5-min Rain = 0
KARS 131325Z 04004KT M06/M10 A3028 RMK A01 T10621097  RH  076%=      5-min Rain = 0
KARS 131330Z 05003KT M06/M10 A3028 RMK A01 T10621096  RH  076%=      5-min Rain = 0
KARS 131335Z 07003KT M06/M09 A3028 RMK A01 T10601092  RH  078%=      5-min Rain = 0
KARS 131340Z 08003KT M06/M09 A3028 RMK A01 T10581091  RH  078%=      5-min Rain = 0
KARS 131345Z 06003KT M06/M09 A3029 RMK A01 T10571090  RH  077%=      5-min Rain = 0
KARS 131350Z 07004KT M06/M09 A3029 RMK A01 T10561091  RH  076%=      5-min Rain = 0
KARS 131355Z 10004KT M05/M09 A3028 RMK A01 T10541089  RH  076%=      5-min Rain = 0
KARS 131400Z 12004KT M05/M09 A3028 RMK A01 T10501085  RH  077%=      5-min Rain = 0
KARS 131405Z 12005KT M05/M08 A3028 RMK A01 T10461078  RH  078%=      5-min Rain = 0
KARS 131410Z 12004KT M04/M07 A3029 RMK A01 T10431073  RH  079%=      5-min Rain = 0
KARS 131415Z 11004KT M04/M07 A3029 RMK A01 T10391070  RH  079%=      5-min Rain = 0
KARS 131420Z 11004KT M04/M07 A3029 RMK A01 T10361067  RH  079%=      5-min Rain = 0
KARS 131425Z 12005KT M03/M07 A3029 RMK A01 T10341066  RH  078%=      5-min Rain = 0
KARS 131430Z 13005KT M03/M07 A3029 RMK A01 T10321065  RH  078%=      5-min Rain = 0
KARS 131435Z 14006KT M03/M06 A3029 RMK A01 T10291061  RH  079%=      5-min Rain = 0
KARS 131440Z 14006KT M03/M06 A3029 RMK A01 T10261059  RH  078%=      5-min Rain = 0
KARS 131445Z 14005KT M02/M06 A303 RMK A01 T10241058  RH  078%=      5-min Rain = 0
KARS 131450Z 13004KT M02/M06 A303 RMK A01 T10231058  RH  077%=      5-min Rain = 0
KARS 131455Z 13005KT M02/M06 A303 RMK A01 T10221058  RH  076%=      5-min Rain = 0
KARS 131500Z 13005KT M02/M06 A303 RMK A01 T10191056  RH  076%=      5-min Rain = 0
KARS 131505Z 14005KT M02/M05 A303 RMK A01 T10151054  RH  075%=      5-min Rain = 0
KARS 131510Z 14006KT M01/M05 A303 RMK A01 T10101052  RH  073%=      5-min Rain = 0
KARS 131515Z 16006KT M00/M05 A3031 RMK A01 T10031051  RH  071%=      5-min Rain = 0
KARS 131520Z 16006KT 00/M05 A3031 RMK A01 T00031048  RH  069%=      5-min Rain = 0
KARS 131525Z 16007KT 01/M04 A3031 RMK A01 T00111044  RH  067%=      5-min Rain = 0
KARS 131530Z 17006KT 01/M04 A3032 RMK A01 T00141044  RH  066%=      5-min Rain = 0
KARS 131535Z 16007KT 01/M04 A3032 RMK A01 T00141044  RH  065%=      5-min Rain = 0
KARS 131540Z 17006KT 01/M04 A3032 RMK A01 T00141043  RH  066%=      5-min Rain = 0
KARS 131545Z 19006KT 02/M04 A3032 RMK A01 T00191041  RH  065%=      5-min Rain = 0
KARS 131550Z 19007KT 02/M04 A3032 RMK A01 T00231038  RH  064%=      5-min Rain = 0
KARS 131555Z 19008KT 03/M04 A3032 RMK A01 T00261036  RH  064%=      5-min Rain = 0
KARS 131600Z 20009KT 02/M03 A3032 RMK A01 T00241034  RH  066%=      5-min Rain = 0
KARS 131605Z 19008KT 02/M04 A3032 RMK A01 T00211036  RH  066%=      5-min Rain = 0
KARS 131610Z 20008KT 02/M03 A3033 RMK A01 T00211034  RH  067%=      5-min Rain = 0
KARS 131615Z 20008KT 03/M03 A3033 RMK A01 T00261032  RH  066%=      5-min Rain = 0
KARS 131620Z 21010KT 03/M03 A3033 RMK A01 T00311029  RH  065%=      5-min Rain = 0
KARS 131625Z 20010KT 04/M03 A3033 RMK A01 T00351026  RH  065%=      5-min Rain = 0
KARS 131630Z 21010KT 04/M03 A3033 RMK A01 T00401025  RH  063%=      5-min Rain = 0
KARS 131635Z 20011KT 04/M02 A3032 RMK A01 T00421024  RH  062%=      5-min Rain = 0
KARS 131640Z 20010KT 05/M02 A3033 RMK A01 T00451023  RH  062%=      5-min Rain = 0
KARS 131645Z 20010KT 05/M02 A3033 RMK A01 T00451024  RH  061%=      5-min Rain = 0
KARS 131650Z 20010KT 05/M02 A3033 RMK A01 T00451023  RH  062%=      5-min Rain = 0
KARS 131655Z 22010KT 05/M02 A3033 RMK A01 T00471021  RH  062%=      5-min Rain = 0
KARS 131700Z 21008KT 05/M02 A3033 RMK A01 T00471021  RH  062%=      5-min Rain = 0
KARS 131705Z 21008KT 05/M02 A3033 RMK A01 T00471021  RH  062%=      5-min Rain = 0
KARS 131710Z 21006KT 05/M02 A3033 RMK A01 T00471020  RH  062%=      5-min Rain = 0
KARS 131715Z 23008KT 05/M02 A3032 RMK A01 T00541017  RH  060%=      5-min Rain = 0
KARS 131720Z 22009KT 06/M02 A3033 RMK A01 T00581016  RH  059%=      5-min Rain = 0
KARS 131725Z 23007KT 06/M02 A3032 RMK A01 T00611018  RH  057%=      5-min Rain = 0
KARS 131730Z 24007KT 06/M02 A3032 RMK A01 T00631018  RH  056%=      5-min Rain = 0
KARS 131735Z 24009KT 07/M02 A3031 RMK A01 T00651016  RH  056%=      5-min Rain = 0
KARS 131740Z 22006G11KT 07/M02 A3032 RMK A01 T00671016  RH  056%=      5-min Rain = 0
KARS 131745Z 24010KT 07/M01 A3032 RMK A01 T00711013  RH  056%=      5-min Rain = 0
KARS 131750Z 23006KT 07/M02 A3032 RMK A01 T00731015  RH  054%=      5-min Rain = 0
KARS 131755Z 20005KT 08/M01 A3031 RMK A01 T00761012  RH  054%=      5-min Rain = 0
KARS 131800Z 23007G12KT 08/M01 A303 RMK A01 T00841008  RH  053%=      5-min Rain = 0
KARS 131805Z 23010KT 09/M00 A303 RMK A01 T00871004  RH  053%=      5-min Rain = 0
KARS 131810Z 22008G13KT 09/M00 A303 RMK A01 T00911002  RH  053%=      5-min Rain = 0
KARS 131815Z 21009G14KT 09/00 A303 RMK A01 T00940000  RH  053%=      5-min Rain = 0
KARS 131820Z 23008KT 09/00 A3029 RMK A01 T00930003  RH  054%=      5-min Rain = 0
KARS 131825Z 22010G16KT 10/00 A3029 RMK A01 T00950004  RH  054%=      5-min Rain = 0
KARS 131830Z 22007KT 10/01 A3029 RMK A01 T00960006  RH  054%=      5-min Rain = 0
KARS 131835Z 20006G11KT 10/01 A3029 RMK A01 T01000009  RH  054%=      5-min Rain = 0
KARS 131840Z 22006G11KT 10/01 A3028 RMK A01 T01030007  RH  052%=      5-min Rain = 0
KARS 131845Z 20006G12KT 11/01 A3028 RMK A01 T01070009  RH  052%=      5-min Rain = 0
KARS 131850Z 23008KT 11/01 A3028 RMK A01 T01070008  RH  051%=      5-min Rain = 0
KARS 131855Z 22008G14KT 11/01 A3028 RMK A01 T01100012  RH  051%=      5-min Rain = 0
KARS 131900Z 22008G14KT 11/01 A3028 RMK A01 T01130012  RH  051%=      5-min Rain = 0
KARS 131905Z 21010G15KT 11/02 A3028 RMK A01 T01140015  RH  051%=      5-min Rain = 0
KARS 131910Z 21010KT 11/02 A3028 RMK A01 T01140016  RH  052%=      5-min Rain = 0
KARS 131915Z 20011G16KT 12/02 A3028 RMK A01 T01150015  RH  051%=      5-min Rain = 0
KARS 131920Z 20011KT 12/02 A3028 RMK A01 T01160016  RH  051%=      5-min Rain = 0
KARS 131925Z 21011KT 12/02 A3027 RMK A01 T01170017  RH  051%=      5-min Rain = 0
KARS 131930Z 21011KT 12/02 A3027 RMK A01 T01160017  RH  052%=      5-min Rain = 0
KARS 131935Z 20011KT 12/02 A3027 RMK A01 T01190017  RH  050%=      5-min Rain = 0
KARS 131940Z 21011G16KT 12/02 A3027 RMK A01 T01200017  RH  050%=      5-min Rain = 0
KARS 131945Z 20009KT 12/02 A3027 RMK A01 T01210017  RH  050%=      5-min Rain = 0
KARS 131950Z 19010KT 12/02 A3026 RMK A01 T01230019  RH  050%=      5-min Rain = 0
KARS 131955Z 21011G17KT 13/02 A3026 RMK A01 T01260019  RH  049%=      5-min Rain = 0
KARS 132000Z 21012KT 13/02 A3026 RMK A01 T01250019  RH  049%=      5-min Rain = 0
KARS 132005Z 19011G16KT 13/02 A3026 RMK A01 T01280020  RH  048%=      5-min Rain = 0
KARS 132010Z 19009G14KT 13/02 A3026 RMK A01 T01290020  RH  048%=      5-min Rain = 0
KARS 132015Z 18010KT 13/02 A3026 RMK A01 T01320020  RH  047%=      5-min Rain = 0
KARS 132020Z 19011KT 14/02 A3025 RMK A01 T01360019  RH  046%=      5-min Rain = 0
KARS 132025Z 20011KT 14/02 A3025 RMK A01 T01360019  RH  046%=      5-min Rain = 0
KARS 132030Z 18008G15KT 14/02 A3025 RMK A01 T01360020  RH  046%=      5-min Rain = 0
KARS 132035Z 16012KT 14/02 A3025 RMK A01 T01360020  RH  046%=      5-min Rain = 0
KARS 132040Z 18012G17KT 14/02 A3024 RMK A01 T01380020  RH  046%=      5-min Rain = 0
KARS 132045Z 17012G17KT 14/02 A3024 RMK A01 T01350021  RH  047%=      5-min Rain = 0
KARS 132050Z 18012KT 14/02 A3024 RMK A01 T01360020  RH  046%=      5-min Rain = 0
KARS 132055Z 19010G15KT 14/02 A3024 RMK A01 T01350019  RH  046%=      5-min Rain = 0
KARS 132100Z 18010G16KT 14/02 A3024 RMK A01 T01360019  RH  046%=      5-min Rain = 0
KARS 132105Z 19009KT 14/02 A3024 RMK A01 T01380018  RH  045%=      5-min Rain = 0
KARS 132110Z 19009KT 14/02 A3024 RMK A01 T01390018  RH  045%=      5-min Rain = 0
KARS 132115Z 18010KT 14/02 A3024 RMK A01 T01370018  RH  045%=      5-min Rain = 0
KARS 132120Z 19011KT 14/02 A3024 RMK A01 T01370017  RH  045%=      5-min Rain = 0
KARS 132125Z 19010KT 14/02 A3024 RMK A01 T01370016  RH  044%=      5-min Rain = 0
KARS 132130Z 19010KT 14/01 A3024 RMK A01 T01390014  RH  043%=      5-min Rain = 0
KARS 132135Z 18010KT 14/02 A3024 RMK A01 T01390016  RH  044%=      5-min Rain = 0
KARS 132140Z 18011KT 14/02 A3024 RMK A01 T01420016  RH  043%=      5-min Rain = 0
KARS 132145Z 20011KT 15/02 A3025 RMK A01 T01450016  RH  042%=      5-min Rain = 0
KARS 132150Z 18011KT 15/02 A3025 RMK A01 T01470017  RH  042%=      5-min Rain = 0
KARS 132155Z 19010G16KT 15/02 A3024 RMK A01 T01470017  RH  042%=      5-min Rain = 0
KARS 132200Z 20011KT 15/02 A3024 RMK A01 T01460017  RH  042%=      5-min Rain = 0
KARS 132205Z 19010G15KT 15/02 A3024 RMK A01 T01450017  RH  043%=      5-min Rain = 0
KARS 132210Z 18010KT 15/02 A3024 RMK A01 T01460018  RH  042%=      5-min Rain = 0
KARS 132215Z 19010KT 15/02 A3024 RMK A01 T01490017  RH  042%=      5-min Rain = 0
KARS 132220Z 18012KT 15/02 A3024 RMK A01 T01460017  RH  042%=      5-min Rain = 0
KARS 132225Z 18010KT 14/02 A3023 RMK A01 T01440017  RH  043%=      5-min Rain = 0
KARS 132230Z 20012KT 14/02 A3023 RMK A01 T01440017  RH  043%=      5-min Rain = 0
KARS 132235Z 19011KT 15/02 A3023 RMK A01 T01460017  RH  042%=      5-min Rain = 0
KARS 132240Z 19011KT 15/02 A3023 RMK A01 T01460017  RH  042%=      5-min Rain = 0
KARS 132245Z 18012KT 15/02 A3023 RMK A01 T01460016  RH  042%=      5-min Rain = 0
KARS 132250Z 19012KT 15/02 A3024 RMK A01 T01460016  RH  042%=      5-min Rain = 0
KARS 132255Z 20011KT 15/02 A3024 RMK A01 T01450016  RH  042%=      5-min Rain = 0
KARS 132300Z 19010KT 14/02 A3024 RMK A01 T01440016  RH  042%=      5-min Rain = 0
KARS 132305Z 19011KT 14/02 A3024 RMK A01 T01430016  RH  043%=      5-min Rain = 0
KARS 132310Z 19011KT 14/02 A3024 RMK A01 T01420017  RH  043%=      5-min Rain = 0
KARS 132315Z 19012KT 14/02 A3024 RMK A01 T01420018  RH  044%=      5-min Rain = 0
KARS 132320Z 19011KT 14/02 A3023 RMK A01 T01430019  RH  044%=      5-min Rain = 0
KARS 132325Z 19010KT 14/02 A3023 RMK A01 T01410020  RH  044%=      5-min Rain = 0
KARS 132330Z 19010KT 14/02 A3023 RMK A01 T01410022  RH  045%=      5-min Rain = 0
KARS 132335Z 19010KT 14/02 A3024 RMK A01 T01380023  RH  046%=      5-min Rain = 0
KARS 132340Z 18008KT 14/02 A3023 RMK A01 T01350023  RH  047%=      5-min Rain = 0
KARS 132345Z 18009KT 14/02 A3023 RMK A01 T01350024  RH  048%=      5-min Rain = 0
KARS 132350Z 18008KT 14/02 A3023 RMK A01 T01360024  RH  048%=      5-min Rain = 0
KARS 132355Z 18007KT 14/02 A3023 RMK A01 T01350024  RH  048%=      5-min Rain = 0
KARS 140000Z 19007KT 13/02 A3023 RMK A01 T01330024  RH  048%=      5-min Rain = 0
KARS 140005Z 18008KT 13/02 A3023 RMK A01 T01300024  RH  049%=      5-min Rain = 0
KARS 140010Z 18008KT 13/02 A3023 RMK A01 T01250023  RH  051%=      5-min Rain = 0
KARS 140015Z 19008KT 12/02 A3023 RMK A01 T01200022  RH  052%=      5-min Rain = 0
KARS 140020Z 19008KT 12/02 A3023 RMK A01 T01160023  RH  053%=      5-min Rain = 0
KARS 140025Z 18007KT 11/02 A3024 RMK A01 T01120022  RH  055%=      5-min Rain = 0
KARS 140030Z 19006KT 11/02 A3024 RMK A01 T01070021  RH  056%=      5-min Rain = 0
KARS 140035Z 19005KT 10/02 A3024 RMK A01 T01030022  RH  058%=      5-min Rain = 0
KARS 140040Z 19005KT 10/02 A3024 RMK A01 T01020022  RH  058%=      5-min Rain = 0
KARS 140045Z 19005KT 10/02 A3024 RMK A01 T01000022  RH  059%=      5-min Rain = 0
KARS 140050Z 19005KT 10/02 A3024 RMK A01 T00990023  RH  060%=      5-min Rain = 0
KARS 140055Z 19005KT 10/02 A3024 RMK A01 T00970024  RH  061%=      5-min Rain = 0
KARS 140100Z 19004KT 10/02 A3024 RMK A01 T00960024  RH  062%=      5-min Rain = 0
KARS 140105Z 19005KT 09/02 A3024 RMK A01 T00940024  RH  063%=      5-min Rain = 0
KARS 140110Z 18006KT 09/02 A3024 RMK A01 T00910022  RH  063%=      5-min Rain = 0
KARS 140115Z 18008KT 09/02 A3024 RMK A01 T00860018  RH  063%=      5-min Rain = 0
KARS 140120Z 17008KT 08/02 A3024 RMK A01 T00830016  RH  064%=      5-min Rain = 0
KARS 140125Z 18009KT 08/02 A3024 RMK A01 T00820018  RH  065%=      5-min Rain = 0
KARS 140130Z 18009KT 08/02 A3024 RMK A01 T00830019  RH  065%=      5-min Rain = 0
KARS 140135Z 16007KT 08/02 A3024 RMK A01 T00810016  RH  064%=      5-min Rain = 0
KARS 140140Z 17008KT 08/02 A3024 RMK A01 T00760016  RH  067%=      5-min Rain = 0
KARS 140145Z 17007KT 07/02 A3025 RMK A01 T00730015  RH  068%=      5-min Rain = 0
KARS 140150Z 18007KT 07/01 A3025 RMK A01 T00680014  RH  069%=      5-min Rain = 0
KARS 140155Z 17008KT 07/01 A3024 RMK A01 T00650014  RH  071%=      5-min Rain = 0
KARS 140200Z 18007KT 07/02 A3024 RMK A01 T00650016  RH  072%=      5-min Rain = 0
KARS 140205Z 18007KT 06/01 A3025 RMK A01 T00620014  RH  072%=      5-min Rain = 0
KARS 140210Z 18007KT 06/02 A3025 RMK A01 T00620015  RH  073%=      5-min Rain = 0
KARS 140215Z 18006KT 06/02 A3025 RMK A01 T00630017  RH  073%=      5-min Rain = 0
KARS 140220Z 17004KT 07/02 A3025 RMK A01 T00660018  RH  073%=      5-min Rain = 0
KARS 140225Z 17004KT 07/02 A3025 RMK A01 T00670018  RH  073%=      5-min Rain = 0
KARS 140230Z 18005KT 07/02 A3025 RMK A01 T00660018  RH  073%=      5-min Rain = 0
KARS 140235Z 18007KT 06/02 A3025 RMK A01 T00630016  RH  073%=      5-min Rain = 0
KARS 140240Z 18006KT 06/02 A3025 RMK A01 T00580015  RH  075%=      5-min Rain = 0
KARS 140245Z 18006KT 06/02 A3025 RMK A01 T00560015  RH  076%=      5-min Rain = 0
KARS 140250Z 18006KT 06/02 A3025 RMK A01 T00560017  RH  077%=      5-min Rain = 0
KARS 140255Z 18006KT 06/02 A3025 RMK A01 T00580018  RH  077%=      5-min Rain = 0
KARS 140300Z 17005KT 06/02 A3025 RMK A01 T00570016  RH  076%=      5-min Rain = 0
KARS 140305Z 17005KT 05/02 A3025 RMK A01 T00540016  RH  077%=      5-min Rain = 0
KARS 140310Z 17005KT 06/02 A3025 RMK A01 T00550018  RH  078%=      5-min Rain = 0
KARS 140315Z 18006KT 05/02 A3026 RMK A01 T00540017  RH  078%=      5-min Rain = 0
KARS 140320Z 18005KT 05/02 A3025 RMK A01 T00530016  RH  078%=      5-min Rain = 0
KARS 140325Z 18005KT 05/02 A3026 RMK A01 T00530017  RH  079%=      5-min Rain = 0
KARS 140330Z 17004KT 05/01 A3026 RMK A01 T00500014  RH  078%=      5-min Rain = 0
KARS 140335Z 17004KT 05/02 A3026 RMK A01 T00490016  RH  080%=      5-min Rain = 0
KARS 140340Z 17005KT 05/02 A3026 RMK A01 T00510017  RH  080%=      5-min Rain = 0
KARS 140345Z 18006KT 05/02 A3026 RMK A01 T00510016  RH  079%=      5-min Rain = 0
KARS 140350Z 18006KT 05/01 A3026 RMK A01 T00470013  RH  079%=      5-min Rain = 0
KARS 140355Z 19007KT 05/01 A3026 RMK A01 T00450013  RH  081%=      5-min Rain = 0
KARS 140400Z 18007KT 04/01 A3026 RMK A01 T00440012  RH  081%=      5-min Rain = 0
KARS 140405Z 18007KT 04/01 A3026 RMK A01 T00430011  RH  081%=      5-min Rain = 0
KARS 140410Z 18005KT 04/01 A3026 RMK A01 T00400008  RH  080%=      5-min Rain = 0
KARS 140415Z 18005KT 04/01 A3025 RMK A01 T00390009  RH  082%=      5-min Rain = 0
KARS 140420Z 18007KT 04/01 A3025 RMK A01 T00410012  RH  082%=      5-min Rain = 0
KARS 140425Z 19008KT 04/01 A3026 RMK A01 T00420012  RH  082%=      5-min Rain = 0
KARS 140430Z 20008KT 05/02 A3026 RMK A01 T00460016  RH  082%=      5-min Rain = 0
KARS 140435Z 20008KT 05/02 A3026 RMK A01 T00510017  RH  080%=      5-min Rain = 0
KARS 140440Z 21008KT 05/02 A3026 RMK A01 T00510015  RH  078%=      5-min Rain = 0
KARS 140445Z 21009KT 05/01 A3026 RMK A01 T00500014  RH  079%=      5-min Rain = 0
KARS 140450Z 20009KT 05/02 A3026 RMK A01 T00490015  RH  079%=      5-min Rain = 0
KARS 140455Z 21008KT 05/02 A3025 RMK A01 T00500016  RH  080%=      5-min Rain = 0
KARS 140500Z 21007KT 05/02 A3025 RMK A01 T00540019  RH  079%=      5-min Rain = 0
KARS 140505Z 20006KT 06/02 A3025 RMK A01 T00570019  RH  078%=      5-min Rain = 0
KARS 140510Z 20006KT 06/02 A3025 RMK A01 T00610021  RH  077%=      5-min Rain = 0
KARS 140515Z 20006KT 06/02 A3025 RMK A01 T00640021  RH  075%=      5-min Rain = 0
KARS 140520Z 20008KT 06/02 A3025 RMK A01 T00630021  RH  075%=      5-min Rain = 0
KARS 140525Z 20008KT 06/02 A3025 RMK A01 T00630021  RH  076%=      5-min Rain = 0
KARS 140530Z 19007KT 06/02 A3025 RMK A01 T00630021  RH  076%=      5-min Rain = 0
KARS 140535Z 19007KT 06/02 A3025 RMK A01 T00620021  RH  076%=      5-min Rain = 0
KARS 140540Z 20006KT 06/02 A3024 RMK A01 T00640022  RH  076%=      5-min Rain = 0
KARS 140545Z 20006KT 07/02 A3024 RMK A01 T00660023  RH  076%=      5-min Rain = 0
KARS 140550Z 19006KT 07/02 A3024 RMK A01 T00660022  RH  075%=      5-min Rain = 0
KARS 140555Z 19006KT 07/02 A3024 RMK A01 T00650022  RH  075%=      5-min Rain = 0

Page generated in 0.0161 seconds.